createdAt,value
2022-07-29T00:02:11.864Z,101181.34
2022-07-29T00:05:42.070Z,101179.98
2022-07-29T00:09:11.245Z,101176.20
2022-07-29T00:12:38.334Z,101176.38
2022-07-29T00:16:06.618Z,101180.48
2022-07-29T00:20:07.967Z,101183.15
2022-07-29T00:23:36.859Z,101184.29
2022-07-29T00:27:04.541Z,101186.45
2022-07-29T00:30:31.323Z,101185.43
2022-07-29T00:33:59.021Z,101191.27
2022-07-29T00:37:26.100Z,101197.79
2022-07-29T00:40:53.879Z,101196.89
2022-07-29T00:44:21.300Z,101199.16
2022-07-29T00:47:49.015Z,101198.55
2022-07-29T00:51:16.834Z,101198.48
2022-07-29T00:54:45.018Z,101200.86
2022-07-29T00:58:14.528Z,101198.22
2022-07-29T01:01:43.412Z,101200.80
2022-07-29T01:05:13.797Z,101194.64
2022-07-29T01:08:41.409Z,101196.02
2022-07-29T01:12:10.259Z,101195.65
2022-07-29T01:15:49.374Z,101197.08
2022-07-29T01:19:41.616Z,101191.16
2022-07-29T01:23:47.191Z,101187.91
2022-07-29T01:27:44.262Z,101191.43
2022-07-29T01:31:24.360Z,101194.08
2022-07-29T01:34:57.110Z,101194.64
2022-07-29T01:38:30.502Z,101195.70
2022-07-29T01:42:04.881Z,101196.84
2022-07-29T01:45:42.104Z,101195.75
2022-07-29T01:49:16.828Z,101192.98
2022-07-29T01:52:50.329Z,101192.16
2022-07-29T01:56:26.114Z,101188.39
2022-07-29T01:59:56.563Z,101187.29
2022-07-29T02:03:29.875Z,101179.63
2022-07-29T02:06:57.493Z,101176.40
2022-07-29T02:10:28.784Z,101175.50
2022-07-29T02:14:11.293Z,101178.52
2022-07-29T02:17:44.682Z,101174.48
2022-07-29T02:21:15.159Z,101171.55
2022-07-29T02:24:45.197Z,101165.47
2022-07-29T02:28:15.507Z,101165.55
2022-07-29T02:31:52.928Z,101166.14
2022-07-29T02:35:25.512Z,101162.92
2022-07-29T02:39:01.245Z,101164.83
2022-07-29T02:42:34.407Z,101165.09
2022-07-29T02:46:05.775Z,101164.08
2022-07-29T02:49:43.875Z,101167.59
2022-07-29T02:53:17.610Z,101166.20
2022-07-29T02:56:48.230Z,101159.69
2022-07-29T03:00:18.423Z,101161.81
2022-07-29T03:03:48.822Z,101165.84
2022-07-29T03:07:18.292Z,101165.17
2022-07-29T03:10:49.156Z,101164.78
2022-07-29T03:14:17.749Z,101169.48
2022-07-29T03:17:46.745Z,101167.92
2022-07-29T03:21:14.197Z,101162.88
2022-07-29T03:24:41.279Z,101162.60
2022-07-29T03:28:10.524Z,101163.98
2022-07-29T03:31:37.506Z,101165.56
2022-07-29T03:35:05.523Z,101170.48
2022-07-29T03:38:36.575Z,101163.81
2022-07-29T03:42:08.227Z,101162.81
2022-07-29T03:45:36.666Z,101163.24
2022-07-29T03:49:06.904Z,101164.37
2022-07-29T03:52:38.493Z,101161.50
2022-07-29T03:56:08.886Z,101153.64
2022-07-29T03:59:37.406Z,101154.98
2022-07-29T04:03:11.772Z,101160.46
2022-07-29T04:06:45.745Z,101165.08
2022-07-29T04:10:26.910Z,101169.11
2022-07-29T04:13:58.894Z,101166.09
2022-07-29T04:17:25.643Z,101163.80
2022-07-29T04:20:52.601Z,101169.67
2022-07-29T04:24:20.074Z,101171.34
2022-07-29T04:28:00.856Z,101177.50
2022-07-29T04:31:27.981Z,101178.71
2022-07-29T04:34:54.842Z,101179.30
2022-07-29T04:38:21.792Z,101177.91
2022-07-29T04:41:49.135Z,101178.59
2022-07-29T04:45:16.242Z,101173.48
2022-07-29T04:48:43.681Z,101171.87
2022-07-29T04:52:11.348Z,101174.30
2022-07-29T04:55:39.262Z,101174.49
2022-07-29T04:59:06.663Z,101182.70
2022-07-29T05:02:33.769Z,101178.98
2022-07-29T05:06:01.225Z,101180.63
2022-07-29T05:09:28.115Z,101184.09
2022-07-29T05:12:55.363Z,101186.61
2022-07-29T05:16:25.301Z,101186.94
2022-07-29T05:19:53.377Z,101191.88
2022-07-29T05:23:20.503Z,101191.66
2022-07-29T05:26:47.671Z,101188.48
2022-07-29T05:30:16.116Z,101191.08
2022-07-29T05:33:43.368Z,101192.34
2022-07-29T05:37:10.564Z,101194.23
2022-07-29T05:40:37.587Z,101191.34
2022-07-29T05:44:04.768Z,101185.92
2022-07-29T05:47:32.279Z,101188.66
2022-07-29T05:50:59.513Z,101187.80
2022-07-29T05:54:27.007Z,101182.94
2022-07-29T05:58:01.026Z,101178.31
2022-07-29T06:01:28.851Z,101181.55
2022-07-29T06:04:56.397Z,101180.75
2022-07-29T06:08:23.670Z,101179.59
2022-07-29T06:11:50.560Z,101180.45
2022-07-29T06:15:17.560Z,101183.20
2022-07-29T06:18:45.589Z,101184.33
2022-07-29T06:22:12.575Z,101185.61
2022-07-29T06:25:42.074Z,101184.48
2022-07-29T06:29:09.825Z,101182.89
2022-07-29T06:32:43.048Z,101181.18
2022-07-29T06:36:11.714Z,101176.11
2022-07-29T06:39:40.540Z,101175.30
2022-07-29T06:43:07.758Z,101175.73
2022-07-29T06:46:35.877Z,101174.71
2022-07-29T06:50:03.168Z,101171.38
2022-07-29T06:53:36.847Z,101170.94
2022-07-29T06:57:04.798Z,101173.35
2022-07-29T07:00:32.927Z,101174.02
2022-07-29T07:04:01.008Z,101176.36
2022-07-29T07:07:28.217Z,101177.46
2022-07-29T07:10:56.507Z,101177.54
2022-07-29T07:14:24.136Z,101171.14
2022-07-29T07:17:51.851Z,101168.11
2022-07-29T07:21:19.674Z,101169.80
2022-07-29T07:24:47.121Z,101168.02
2022-07-29T07:28:14.847Z,101169.67
2022-07-29T07:31:42.378Z,101168.02
2022-07-29T07:35:15.883Z,101168.05
2022-07-29T07:38:41.321Z,101166.09
2022-07-29T07:42:08.572Z,101159.58
2022-07-29T07:45:35.775Z,101161.77
2022-07-29T07:49:02.853Z,101159.77
2022-07-29T07:52:29.880Z,101160.91
2022-07-29T07:56:13.005Z,101157.75
2022-07-29T07:59:40.676Z,101160.11
2022-07-29T08:03:16.606Z,101162.63
2022-07-29T08:06:44.357Z,101157.69
2022-07-29T08:10:12.507Z,101156.41
2022-07-29T08:13:41.777Z,101156.80
2022-07-29T08:17:09.123Z,101159.19
2022-07-29T08:20:36.891Z,101157.05
2022-07-29T08:24:19.509Z,101158.08
2022-07-29T08:27:46.796Z,101158.25
2022-07-29T08:31:14.791Z,101156.09
2022-07-29T08:34:42.263Z,101153.70
2022-07-29T08:38:09.713Z,101157.16
2022-07-29T08:41:37.968Z,101146.10
2022-07-29T08:45:05.535Z,101160.83
2022-07-29T08:48:36.480Z,101162.56
2022-07-29T08:52:05.885Z,101157.20
2022-07-29T08:55:33.478Z,101154.19
2022-07-29T08:59:06.763Z,101157.77
2022-07-29T09:02:42.554Z,101162.01
2022-07-29T09:06:10.824Z,101161.25
2022-07-29T09:09:42.049Z,101159.09
2022-07-29T09:13:10.105Z,101158.70
2022-07-29T09:16:55.645Z,101156.24
2022-07-29T09:20:25.174Z,101148.17
2022-07-29T09:24:10.123Z,101143.52
2022-07-29T09:27:37.804Z,101148.48
2022-07-29T09:31:08.420Z,101149.92
2022-07-29T09:34:36.996Z,101145.49
2022-07-29T09:38:18.179Z,101145.99
2022-07-29T09:42:03.916Z,101139.27
2022-07-29T09:45:41.698Z,101132.67
2022-07-29T09:49:38.366Z,101134.57
2022-07-29T09:53:55.267Z,101134.91
2022-07-29T09:57:39.498Z,101134.00
2022-07-29T10:01:37.538Z,101126.46
2022-07-29T10:05:22.467Z,101125.38
2022-07-29T10:09:13.166Z,101118.80
2022-07-29T10:12:55.786Z,101114.44
2022-07-29T10:16:26.559Z,101115.13
2022-07-29T10:19:54.430Z,101113.15
2022-07-29T10:23:22.237Z,101110.33
2022-07-29T10:26:49.954Z,101115.05
2022-07-29T10:30:18.561Z,101115.92
2022-07-29T10:33:56.761Z,101114.02
2022-07-29T10:37:36.309Z,101113.46
2022-07-29T10:41:32.443Z,101109.27
2022-07-29T10:45:12.519Z,101114.38
2022-07-29T10:48:59.571Z,101114.55
2022-07-29T10:52:49.003Z,101117.57
2022-07-29T10:56:28.817Z,101114.96
2022-07-29T11:00:35.385Z,101115.02
2022-07-29T11:04:05.943Z,101113.08
2022-07-29T11:07:45.780Z,101109.65
2022-07-29T11:11:44.119Z,101106.65
2022-07-29T11:15:20.691Z,101105.92
2022-07-29T11:19:26.715Z,101104.70
2022-07-29T11:22:58.289Z,101103.45
2022-07-29T11:26:27.473Z,101103.91
2022-07-29T11:29:58.665Z,101100.79
2022-07-29T11:37:28.929Z,101106.14
2022-07-29T11:41:37.369Z,101110.82
2022-07-29T11:45:41.659Z,101111.30
2022-07-29T11:48:58.655Z,101107.53
2022-07-29T11:56:34.414Z,101095.01
2022-07-29T12:00:09.687Z,101089.34
2022-07-29T12:03:41.118Z,101091.77
2022-07-29T12:07:03.823Z,101099.27
2022-07-29T12:07:16.827Z,101092.74
2022-07-29T12:10:47.361Z,101091.30
2022-07-29T12:14:30.928Z,101090.27
2022-07-29T12:18:03.641Z,101088.34
2022-07-29T12:21:31.358Z,101084.24
2022-07-29T12:25:30.360Z,101079.61
2022-07-29T12:28:51.145Z,101080.59
2022-07-29T12:32:20.297Z,101081.55
2022-07-29T12:36:03.577Z,101079.10
2022-07-29T12:39:36.283Z,101074.23
2022-07-29T12:43:17.691Z,101075.77
2022-07-29T12:46:50.800Z,101071.10
2022-07-29T12:50:36.253Z,101067.19
2022-07-29T12:54:15.691Z,101067.73
2022-07-29T12:57:53.618Z,101072.75
2022-07-29T13:01:22.188Z,101075.91
2022-07-29T13:05:00.352Z,101073.48
2022-07-29T13:08:30.043Z,101070.00
2022-07-29T13:11:57.688Z,101068.02
2022-07-29T13:15:24.676Z,101065.23
2022-07-29T13:19:05.265Z,101054.41
2022-07-29T13:22:32.819Z,101054.58
2022-07-29T13:26:10.359Z,101051.78
2022-07-29T13:29:38.822Z,101043.94
2022-07-29T13:33:09.495Z,101039.64
2022-07-29T13:36:41.304Z,101040.11
2022-07-29T13:40:11.212Z,101036.83
2022-07-29T13:43:38.626Z,101029.41
2022-07-29T13:47:06.857Z,101022.98
2022-07-29T13:50:34.127Z,101023.99
2022-07-29T13:54:01.291Z,101025.04
2022-07-29T13:57:29.447Z,101021.59
2022-07-29T14:00:59.686Z,101015.96
2022-07-29T14:04:27.195Z,101015.20
2022-07-29T14:07:54.806Z,101011.72
2022-07-29T14:11:22.672Z,101009.58
2022-07-29T14:14:52.230Z,101003.83
2022-07-29T14:18:19.465Z,100997.41
2022-07-29T14:21:46.697Z,100998.14
2022-07-29T14:25:15.701Z,101000.88
2022-07-29T14:28:45.972Z,101002.21
2022-07-29T14:32:16.253Z,100998.67
2022-07-29T14:35:43.613Z,100996.45
2022-07-29T14:39:10.848Z,100992.61
2022-07-29T14:42:39.020Z,100987.08
2022-07-29T14:46:08.467Z,100993.71
2022-07-29T14:49:36.143Z,100990.55
2022-07-29T14:53:05.046Z,100986.36
2022-07-29T14:56:37.289Z,100984.65
2022-07-29T15:00:07.241Z,100983.48
2022-07-29T15:03:36.824Z,100972.95
2022-07-29T15:07:04.990Z,100975.02
2022-07-29T15:10:33.341Z,100965.48
2022-07-29T15:14:00.624Z,100962.45
2022-07-29T15:17:28.075Z,100968.23
2022-07-29T15:20:57.587Z,100966.77
2022-07-29T15:24:27.662Z,100960.48
2022-07-29T15:28:00.779Z,100961.27
2022-07-29T15:31:28.885Z,100959.70
2022-07-29T15:34:56.534Z,100954.97
2022-07-29T15:38:28.603Z,100948.89
2022-07-29T15:41:57.577Z,100947.89
2022-07-29T15:45:25.712Z,100951.78
2022-07-29T15:48:59.946Z,100946.14
2022-07-29T15:52:30.017Z,100944.84
2022-07-29T15:55:59.310Z,100941.76
2022-07-29T15:59:27.804Z,100939.21
2022-07-29T16:02:57.128Z,100936.13
2022-07-29T16:06:24.449Z,100932.07
2022-07-29T16:09:53.358Z,100935.94
2022-07-29T16:13:21.007Z,100932.00
2022-07-29T16:16:48.158Z,100927.59
2022-07-29T16:20:15.971Z,100922.77
2022-07-29T16:23:43.186Z,100922.51
2022-07-29T16:27:10.429Z,100927.80
2022-07-29T16:30:37.982Z,100931.16
2022-07-29T16:34:07.650Z,100930.63
2022-07-29T16:37:36.995Z,100927.53
2022-07-29T16:41:06.514Z,100929.05
2022-07-29T16:44:36.066Z,100924.77
2022-07-29T16:48:06.279Z,100927.73
2022-07-29T16:51:34.322Z,100933.79
2022-07-29T16:55:02.900Z,100933.39
2022-07-29T16:58:30.381Z,100933.90
2022-07-29T17:01:58.308Z,100930.72
2022-07-29T17:05:28.763Z,100933.05
2022-07-29T17:08:56.284Z,100930.35
2022-07-29T17:12:24.336Z,100927.48
2022-07-29T17:15:57.560Z,100929.41
2022-07-29T17:19:27.560Z,100930.03
2022-07-29T17:22:54.790Z,100927.69
2022-07-29T17:26:22.254Z,100932.19
2022-07-29T17:29:51.081Z,100932.57
2022-07-29T17:33:21.423Z,100933.57
2022-07-29T17:36:50.307Z,100930.14
2022-07-29T17:40:19.198Z,100929.20
2022-07-29T17:43:48.361Z,100931.59
2022-07-29T17:47:16.742Z,100932.11
2022-07-29T17:50:45.720Z,100935.83
2022-07-29T17:54:14.773Z,100932.15
2022-07-29T17:57:41.929Z,100927.47
2022-07-29T18:01:11.135Z,100928.67
2022-07-29T18:04:40.498Z,100928.23
2022-07-29T18:08:11.393Z,100925.91
2022-07-29T18:11:39.101Z,100926.37
2022-07-29T18:15:15.638Z,100929.21
2022-07-29T18:18:45.207Z,100930.19
2022-07-29T18:22:15.804Z,100928.52
2022-07-29T18:25:43.361Z,100926.66
2022-07-29T18:29:11.492Z,100928.85
2022-07-29T18:32:38.911Z,100938.67
2022-07-29T18:36:11.237Z,100942.44
2022-07-29T18:39:40.997Z,100938.66
2022-07-29T18:43:11.025Z,100941.25
2022-07-29T18:46:38.651Z,100941.05
2022-07-29T18:50:16.602Z,100943.88
2022-07-29T18:53:48.381Z,100944.44
2022-07-29T18:57:56.289Z,100948.84
2022-07-29T19:01:12.401Z,100950.77
2022-07-29T19:04:41.876Z,100957.25
2022-07-29T19:08:12.940Z,100957.73
2022-07-29T19:11:41.618Z,100957.62
2022-07-29T19:15:11.035Z,100959.64
2022-07-29T19:18:43.530Z,100965.42
2022-07-29T19:22:16.641Z,100971.91
2022-07-29T19:25:53.567Z,100971.23
2022-07-29T19:29:23.850Z,100975.88
2022-07-29T19:32:51.622Z,100976.61
2022-07-29T19:36:19.562Z,100981.71
2022-07-29T19:39:51.664Z,100980.30
2022-07-29T19:43:50.632Z,100977.69
2022-07-29T19:47:22.107Z,100977.36
2022-07-29T19:50:59.555Z,100981.80
2022-07-29T19:54:31.495Z,100984.15
2022-07-29T19:58:09.411Z,100984.35
2022-07-29T20:01:38.588Z,100983.28
2022-07-29T20:05:12.678Z,100985.21
2022-07-29T20:08:42.668Z,100990.11
2022-07-29T20:12:15.029Z,100986.45
2022-07-29T20:15:42.830Z,100988.58
2022-07-29T20:19:10.829Z,100992.60
2022-07-29T20:22:42.585Z,100992.67
2022-07-29T20:26:13.325Z,100997.29
2022-07-29T20:29:43.687Z,100997.47
2022-07-29T20:33:16.544Z,100995.65
2022-07-29T20:36:53.936Z,100996.09
2022-07-29T20:40:32.006Z,100997.92
2022-07-29T20:44:05.307Z,100997.84
2022-07-29T20:47:39.620Z,100997.58
2022-07-29T20:51:09.051Z,100995.70
2022-07-29T20:54:43.527Z,100986.17
2022-07-29T20:58:14.931Z,100987.50
2022-07-29T21:01:43.311Z,100984.30
2022-07-29T21:05:13.551Z,100986.13
2022-07-29T21:08:43.184Z,100990.94
2022-07-29T21:12:14.058Z,100992.05
2022-07-29T21:15:42.619Z,100990.88
2022-07-29T21:19:16.065Z,100987.48
2022-07-29T21:22:47.334Z,100983.72
2022-07-29T21:26:19.002Z,100986.50
2022-07-29T21:29:50.027Z,100984.84
2022-07-29T21:33:20.241Z,100983.89
2022-07-29T21:36:50.507Z,100983.80
2022-07-29T21:40:24.016Z,100984.16
2022-07-29T21:43:55.742Z,100986.19
2022-07-29T21:47:30.225Z,100982.61
2022-07-29T21:51:01.781Z,100978.14
2022-07-29T21:54:33.906Z,100974.13
2022-07-29T21:58:05.749Z,100976.23
2022-07-29T22:01:39.467Z,100971.49
2022-07-29T22:05:11.948Z,100975.45
2022-07-29T22:08:42.479Z,100974.55
2022-07-29T22:12:12.853Z,100972.13
2022-07-29T22:15:47.060Z,100965.29
2022-07-29T22:19:16.365Z,100963.36
2022-07-29T22:23:10.332Z,100950.02
2022-07-29T22:26:57.860Z,100954.65
2022-07-29T22:30:32.289Z,100957.11
2022-07-29T22:34:06.545Z,100967.42
2022-07-29T22:37:36.466Z,100963.08
2022-07-29T22:41:08.587Z,100959.38
2022-07-29T22:44:44.383Z,100961.17
2022-07-29T22:48:27.231Z,100964.13
2022-07-29T22:52:05.954Z,100963.51
2022-07-29T22:55:37.723Z,100964.98
2022-07-29T22:59:07.034Z,100961.70
2022-07-29T23:02:36.652Z,100960.80
2022-07-29T23:06:05.651Z,100957.79
2022-07-29T23:09:34.614Z,100951.14
2022-07-29T23:13:03.136Z,100951.52
2022-07-29T23:16:31.580Z,100954.23
2022-07-29T23:20:01.248Z,100954.52
2022-07-29T23:23:33.905Z,100955.29
2022-07-29T23:27:04.490Z,100952.07
2022-07-29T23:30:37.313Z,100954.33
2022-07-29T23:34:07.690Z,100947.99
2022-07-29T23:37:35.092Z,100943.30
2022-07-29T23:41:03.942Z,100945.73
2022-07-29T23:44:31.669Z,100941.61
2022-07-29T23:47:58.783Z,100932.83
2022-07-29T23:51:25.912Z,100929.77
2022-07-29T23:54:53.460Z,100929.63
2022-07-29T23:58:20.714Z,100931.17
